sensor_id;sensor_type;location;lat;lon;timestamp;P1;durP1;ratioP1;P2;durP2;ratioP2
29504;SDS011;16452;54.174;12.092;2022-12-07T00:01:23;6.88;;;5.50;;
29504;SDS011;16452;54.174;12.092;2022-12-07T00:03:59;10.52;;;5.55;;
29504;SDS011;16452;54.174;12.092;2022-12-07T00:06:33;6.75;;;5.13;;
29504;SDS011;16452;54.174;12.092;2022-12-07T00:09:02;5.85;;;5.13;;
29504;SDS011;16452;54.174;12.092;2022-12-07T00:11:30;6.60;;;5.20;;
29504;SDS011;16452;54.174;12.092;2022-12-07T00:13:57;7.25;;;5.75;;
29504;SDS011;16452;54.174;12.092;2022-12-07T00:16:26;6.53;;;5.28;;
29504;SDS011;16452;54.174;12.092;2022-12-07T00:18:55;7.28;;;5.45;;
29504;SDS011;16452;54.174;12.092;2022-12-07T00:21:22;9.25;;;5.85;;
29504;SDS011;16452;54.174;12.092;2022-12-07T00:23:54;6.57;;;5.40;;
29504;SDS011;16452;54.174;12.092;2022-12-07T00:26:22;6.72;;;5.65;;
29504;SDS011;16452;54.174;12.092;2022-12-07T00:28:52;7.05;;;5.40;;
29504;SDS011;16452;54.174;12.092;2022-12-07T00:31:24;10.15;;;5.63;;
29504;SDS011;16452;54.174;12.092;2022-12-07T00:33:54;8.23;;;5.78;;
29504;SDS011;16452;54.174;12.092;2022-12-07T00:36:21;8.25;;;5.75;;
29504;SDS011;16452;54.174;12.092;2022-12-07T00:38:49;7.75;;;5.78;;
29504;SDS011;16452;54.174;12.092;2022-12-07T00:41:15;11.40;;;6.53;;
29504;SDS011;16452;54.174;12.092;2022-12-07T00:43:47;7.15;;;5.57;;
29504;SDS011;16452;54.174;12.092;2022-12-07T00:46:14;7.88;;;6.03;;
29504;SDS011;16452;54.174;12.092;2022-12-07T00:48:41;7.88;;;5.97;;
29504;SDS011;16452;54.174;12.092;2022-12-07T00:51:07;9.25;;;6.80;;
29504;SDS011;16452;54.174;12.092;2022-12-07T00:53:38;9.15;;;6.70;;
29504;SDS011;16452;54.174;12.092;2022-12-07T00:56:11;10.93;;;7.53;;
29504;SDS011;16452;54.174;12.092;2022-12-07T00:58:40;9.15;;;6.85;;
29504;SDS011;16452;54.174;12.092;2022-12-07T01:01:06;9.82;;;7.10;;
29504;SDS011;16452;54.174;12.092;2022-12-07T01:03:33;10.23;;;7.35;;
29504;SDS011;16452;54.174;12.092;2022-12-07T01:06:00;9.32;;;7.55;;
29504;SDS011;16452;54.174;12.092;2022-12-07T01:08:26;9.98;;;7.80;;
29504;SDS011;16452;54.174;12.092;2022-12-07T01:11:27;10.05;;;7.78;;
29504;SDS011;16452;54.174;12.092;2022-12-07T01:13:49;10.75;;;7.90;;
29504;SDS011;16452;54.174;12.092;2022-12-07T01:16:17;10.30;;;7.88;;
29504;SDS011;16452;54.174;12.092;2022-12-07T01:18:45;9.85;;;7.72;;
29504;SDS011;16452;54.174;12.092;2022-12-07T01:21:17;10.48;;;7.93;;
29504;SDS011;16452;54.174;12.092;2022-12-07T01:23:46;10.15;;;8.00;;
29504;SDS011;16452;54.174;12.092;2022-12-07T01:26:13;11.25;;;8.20;;
29504;SDS011;16452;54.174;12.092;2022-12-07T01:28:42;12.20;;;8.75;;
29504;SDS011;16452;54.174;12.092;2022-12-07T01:31:15;12.30;;;8.98;;
29504;SDS011;16452;54.174;12.092;2022-12-07T01:33:44;11.98;;;8.95;;
29504;SDS011;16452;54.174;12.092;2022-12-07T01:38:49;12.98;;;9.52;;
29504;SDS011;16452;54.174;12.092;2022-12-07T01:41:21;12.38;;;9.00;;
29504;SDS011;16452;54.174;12.092;2022-12-07T01:46:49;12.55;;;9.52;;
29504;SDS011;16452;54.174;12.092;2022-12-07T01:52:20;12.75;;;9.82;;
29504;SDS011;16452;54.174;12.092;2022-12-07T01:54:55;13.52;;;10.18;;
29504;SDS011;16452;54.174;12.092;2022-12-07T01:57:25;13.48;;;10.27;;
29504;SDS011;16452;54.174;12.092;2022-12-07T01:59:51;13.18;;;10.07;;
29504;SDS011;16452;54.174;12.092;2022-12-07T02:02:31;13.55;;;10.07;;
29504;SDS011;16452;54.174;12.092;2022-12-07T02:05:08;14.43;;;9.55;;
29504;SDS011;16452;54.174;12.092;2022-12-07T02:07:34;13.02;;;9.90;;
29504;SDS011;16452;54.174;12.092;2022-12-07T02:10:16;13.15;;;10.05;;
29504;SDS011;16452;54.174;12.092;2022-12-07T02:13:10;13.63;;;10.20;;
29504;SDS011;16452;54.174;12.092;2022-12-07T02:15:45;13.27;;;10.00;;
29504;SDS011;16452;54.174;12.092;2022-12-07T02:30:20;12.13;;;9.75;;
29504;SDS011;16452;54.174;12.092;2022-12-07T02:32:54;13.30;;;9.68;;
29504;SDS011;16452;54.174;12.092;2022-12-07T02:35:39;13.68;;;9.57;;
29504;SDS011;16452;54.174;12.092;2022-12-07T02:41:22;15.02;;;9.90;;
29504;SDS011;16452;54.174;12.092;2022-12-07T02:44:02;12.93;;;9.02;;
29504;SDS011;16452;54.174;12.092;2022-12-07T02:47:09;11.90;;;9.10;;
29504;SDS011;16452;54.174;12.092;2022-12-07T02:49:30;12.02;;;8.95;;
29504;SDS011;16452;54.174;12.092;2022-12-07T02:51:56;12.13;;;8.70;;
29504;SDS011;16452;54.174;12.092;2022-12-07T02:54:22;12.05;;;9.18;;
29504;SDS011;16452;54.174;12.092;2022-12-07T03:00:07;13.43;;;8.80;;
29504;SDS011;16452;54.174;12.092;2022-12-07T03:05:27;13.07;;;9.40;;
29504;SDS011;16452;54.174;12.092;2022-12-07T03:11:45;13.77;;;9.38;;
29504;SDS011;16452;54.174;12.092;2022-12-07T03:16:53;16.13;;;9.43;;
29504;SDS011;16452;54.174;12.092;2022-12-07T03:19:33;15.23;;;9.10;;
29504;SDS011;16452;54.174;12.092;2022-12-07T03:22:05;13.75;;;9.38;;
29504;SDS011;16452;54.174;12.092;2022-12-07T03:24:39;14.13;;;10.00;;
29504;SDS011;16452;54.174;12.092;2022-12-07T03:27:26;15.13;;;9.80;;
29504;SDS011;16452;54.174;12.092;2022-12-07T03:30:05;14.95;;;9.80;;
29504;SDS011;16452;54.174;12.092;2022-12-07T03:35:33;17.60;;;10.60;;
29504;SDS011;16452;54.174;12.092;2022-12-07T03:38:27;18.13;;;10.50;;
29504;SDS011;16452;54.174;12.092;2022-12-07T03:41:03;16.35;;;9.90;;
29504;SDS011;16452;54.174;12.092;2022-12-07T03:43:58;15.95;;;10.20;;
29504;SDS011;16452;54.174;12.092;2022-12-07T03:46:28;17.02;;;11.05;;
29504;SDS011;16452;54.174;12.092;2022-12-07T03:52:59;17.17;;;11.65;;
29504;SDS011;16452;54.174;12.092;2022-12-07T03:55:37;18.83;;;11.35;;
29504;SDS011;16452;54.174;12.092;2022-12-07T03:58:09;19.88;;;12.02;;
29504;SDS011;16452;54.174;12.092;2022-12-07T04:00:40;20.88;;;13.00;;
29504;SDS011;16452;54.174;12.092;2022-12-07T04:03:08;23.45;;;13.25;;
29504;SDS011;16452;54.174;12.092;2022-12-07T04:05:34;24.13;;;12.50;;
29504;SDS011;16452;54.174;12.092;2022-12-07T04:08:00;22.50;;;13.02;;
29504;SDS011;16452;54.174;12.092;2022-12-07T04:10:26;19.73;;;11.95;;
29504;SDS011;16452;54.174;12.092;2022-12-07T04:12:51;23.95;;;13.45;;
29504;SDS011;16452;54.174;12.092;2022-12-07T04:15:17;23.05;;;13.48;;
29504;SDS011;16452;54.174;12.092;2022-12-07T04:17:43;27.40;;;14.55;;
29504;SDS011;16452;54.174;12.092;2022-12-07T04:20:09;26.00;;;13.85;;
29504;SDS011;16452;54.174;12.092;2022-12-07T04:22:35;24.77;;;13.00;;
29504;SDS011;16452;54.174;12.092;2022-12-07T04:25:01;24.98;;;13.68;;
29504;SDS011;16452;54.174;12.092;2022-12-07T04:27:27;21.98;;;13.35;;
29504;SDS011;16452;54.174;12.092;2022-12-07T04:29:53;26.05;;;13.48;;
29504;SDS011;16452;54.174;12.092;2022-12-07T04:32:20;24.20;;;13.40;;
29504;SDS011;16452;54.174;12.092;2022-12-07T04:34:46;25.05;;;13.57;;
29504;SDS011;16452;54.174;12.092;2022-12-07T04:37:12;23.60;;;13.40;;
29504;SDS011;16452;54.174;12.092;2022-12-07T04:39:38;24.35;;;13.23;;
29504;SDS011;16452;54.174;12.092;2022-12-07T04:42:03;22.88;;;13.02;;
29504;SDS011;16452;54.174;12.092;2022-12-07T04:44:29;23.10;;;12.93;;
29504;SDS011;16452;54.174;12.092;2022-12-07T04:46:55;25.77;;;13.80;;
29504;SDS011;16452;54.174;12.092;2022-12-07T04:49:22;22.20;;;13.15;;
29504;SDS011;16452;54.174;12.092;2022-12-07T04:51:49;21.73;;;13.23;;
29504;SDS011;16452;54.174;12.092;2022-12-07T04:54:15;20.42;;;12.68;;
29504;SDS011;16452;54.174;12.092;2022-12-07T04:56:42;21.70;;;12.48;;
29504;SDS011;16452;54.174;12.092;2022-12-07T04:59:09;20.95;;;12.68;;
29504;SDS011;16452;54.174;12.092;2022-12-07T05:01:39;21.67;;;12.60;;
29504;SDS011;16452;54.174;12.092;2022-12-07T05:04:05;20.38;;;12.85;;
29504;SDS011;16452;54.174;12.092;2022-12-07T05:06:33;17.90;;;12.40;;
29504;SDS011;16452;54.174;12.092;2022-12-07T05:08:59;20.38;;;13.35;;
29504;SDS011;16452;54.174;12.092;2022-12-07T05:11:25;21.70;;;13.18;;
29504;SDS011;16452;54.174;12.092;2022-12-07T05:14:05;19.30;;;12.60;;
29504;SDS011;16452;54.174;12.092;2022-12-07T05:16:46;20.10;;;12.85;;
29504;SDS011;16452;54.174;12.092;2022-12-07T05:19:18;22.52;;;13.05;;
29504;SDS011;16452;54.174;12.092;2022-12-07T05:21:46;21.05;;;13.00;;
29504;SDS011;16452;54.174;12.092;2022-12-07T05:24:13;26.50;;;15.30;;
29504;SDS011;16452;54.174;12.092;2022-12-07T05:26:40;22.17;;;13.40;;
29504;SDS011;16452;54.174;12.092;2022-12-07T05:29:06;22.67;;;13.40;;
29504;SDS011;16452;54.174;12.092;2022-12-07T05:31:32;24.27;;;14.02;;
29504;SDS011;16452;54.174;12.092;2022-12-07T05:33:59;24.73;;;14.38;;
29504;SDS011;16452;54.174;12.092;2022-12-07T05:36:25;24.75;;;14.48;;
29504;SDS011;16452;54.174;12.092;2022-12-07T05:38:53;22.55;;;13.88;;
29504;SDS011;16452;54.174;12.092;2022-12-07T05:41:19;24.73;;;15.00;;
29504;SDS011;16452;54.174;12.092;2022-12-07T05:44:04;23.90;;;14.77;;
29504;SDS011;16452;54.174;12.092;2022-12-07T05:46:30;26.63;;;14.82;;
29504;SDS011;16452;54.174;12.092;2022-12-07T05:48:55;25.73;;;14.95;;
29504;SDS011;16452;54.174;12.092;2022-12-07T05:51:21;24.73;;;14.73;;
29504;SDS011;16452;54.174;12.092;2022-12-07T05:53:47;25.33;;;15.05;;
29504;SDS011;16452;54.174;12.092;2022-12-07T05:56:13;24.88;;;14.50;;
29504;SDS011;16452;54.174;12.092;2022-12-07T05:58:39;23.27;;;13.30;;
29504;SDS011;16452;54.174;12.092;2022-12-07T06:01:23;21.85;;;12.70;;
29504;SDS011;16452;54.174;12.092;2022-12-07T06:03:49;9.13;;;6.28;;
29504;SDS011;16452;54.174;12.092;2022-12-07T06:06:14;7.40;;;5.47;;
29504;SDS011;16452;54.174;12.092;2022-12-07T06:08:40;6.85;;;5.10;;
29504;SDS011;16452;54.174;12.092;2022-12-07T06:11:06;7.55;;;4.93;;
29504;SDS011;16452;54.174;12.092;2022-12-07T06:13:50;7.13;;;4.80;;
29504;SDS011;16452;54.174;12.092;2022-12-07T06:16:16;6.97;;;4.85;;
29504;SDS011;16452;54.174;12.092;2022-12-07T06:18:41;8.45;;;4.60;;
29504;SDS011;16452;54.174;12.092;2022-12-07T06:21:07;7.78;;;4.75;;
29504;SDS011;16452;54.174;12.092;2022-12-07T06:23:33;6.47;;;4.40;;
29504;SDS011;16452;54.174;12.092;2022-12-07T06:25:58;6.65;;;4.20;;
29504;SDS011;16452;54.174;12.092;2022-12-07T06:28:24;7.90;;;4.35;;
29504;SDS011;16452;54.174;12.092;2022-12-07T06:30:56;8.55;;;4.75;;
29504;SDS011;16452;54.174;12.092;2022-12-07T06:33:23;7.82;;;4.75;;
29504;SDS011;16452;54.174;12.092;2022-12-07T06:35:49;7.32;;;4.45;;
29504;SDS011;16452;54.174;12.092;2022-12-07T06:38:16;6.68;;;4.43;;
29504;SDS011;16452;54.174;12.092;2022-12-07T06:40:42;5.78;;;4.18;;
29504;SDS011;16452;54.174;12.092;2022-12-07T06:43:07;4.70;;;3.63;;
29504;SDS011;16452;54.174;12.092;2022-12-07T06:45:33;6.97;;;4.05;;
29504;SDS011;16452;54.174;12.092;2022-12-07T06:47:59;5.78;;;4.10;;
29504;SDS011;16452;54.174;12.092;2022-12-07T06:50:25;6.05;;;3.97;;
29504;SDS011;16452;54.174;12.092;2022-12-07T06:52:51;6.00;;;4.47;;
29504;SDS011;16452;54.174;12.092;2022-12-07T06:55:17;5.80;;;4.47;;
29504;SDS011;16452;54.174;12.092;2022-12-07T06:57:43;5.72;;;4.18;;
29504;SDS011;16452;54.174;12.092;2022-12-07T07:00:09;7.47;;;4.78;;
29504;SDS011;16452;54.174;12.092;2022-12-07T07:02:36;8.40;;;5.55;;
29504;SDS011;16452;54.174;12.092;2022-12-07T07:05:02;8.35;;;5.57;;
29504;SDS011;16452;54.174;12.092;2022-12-07T07:07:28;9.55;;;6.55;;
29504;SDS011;16452;54.174;12.092;2022-12-07T07:09:54;9.32;;;6.45;;
29504;SDS011;16452;54.174;12.092;2022-12-07T07:12:19;10.52;;;6.93;;
29504;SDS011;16452;54.174;12.092;2022-12-07T07:14:45;10.77;;;7.32;;
29504;SDS011;16452;54.174;12.092;2022-12-07T07:17:11;9.30;;;6.80;;
29504;SDS011;16452;54.174;12.092;2022-12-07T07:19:38;12.43;;;8.00;;
29504;SDS011;16452;54.174;12.092;2022-12-07T07:22:06;12.95;;;7.43;;
29504;SDS011;16452;54.174;12.092;2022-12-07T07:24:38;14.73;;;8.35;;
29504;SDS011;16452;54.174;12.092;2022-12-07T07:27:04;11.20;;;7.82;;
29504;SDS011;16452;54.174;12.092;2022-12-07T07:29:29;11.30;;;8.10;;
29504;SDS011;16452;54.174;12.092;2022-12-07T07:31:55;13.20;;;7.65;;
29504;SDS011;16452;54.174;12.092;2022-12-07T07:34:21;11.25;;;7.45;;
29504;SDS011;16452;54.174;12.092;2022-12-07T07:36:46;12.25;;;7.55;;
29504;SDS011;16452;54.174;12.092;2022-12-07T07:39:12;9.68;;;6.72;;
29504;SDS011;16452;54.174;12.092;2022-12-07T07:41:38;11.05;;;5.22;;
29504;SDS011;16452;54.174;12.092;2022-12-07T07:44:04;3.97;;;3.00;;
29504;SDS011;16452;54.174;12.092;2022-12-07T07:46:30;3.90;;;2.53;;
29504;SDS011;16452;54.174;12.092;2022-12-07T07:48:58;4.60;;;2.95;;
29504;SDS011;16452;54.174;12.092;2022-12-07T07:51:23;5.93;;;3.00;;
29504;SDS011;16452;54.174;12.092;2022-12-07T07:53:49;5.68;;;3.22;;
29504;SDS011;16452;54.174;12.092;2022-12-07T07:56:15;4.55;;;3.00;;
29504;SDS011;16452;54.174;12.092;2022-12-07T07:58:41;4.38;;;3.03;;
29504;SDS011;16452;54.174;12.092;2022-12-07T08:01:06;3.17;;;2.38;;
29504;SDS011;16452;54.174;12.092;2022-12-07T08:03:33;2.47;;;1.92;;
29504;SDS011;16452;54.174;12.092;2022-12-07T08:05:59;2.72;;;2.10;;
29504;SDS011;16452;54.174;12.092;2022-12-07T08:08:31;3.55;;;2.47;;
29504;SDS011;16452;54.174;12.092;2022-12-07T08:10:57;2.17;;;1.88;;
29504;SDS011;16452;54.174;12.092;2022-12-07T08:13:26;3.03;;;2.05;;
29504;SDS011;16452;54.174;12.092;2022-12-07T08:15:52;4.68;;;2.30;;
29504;SDS011;16452;54.174;12.092;2022-12-07T08:18:18;5.03;;;2.30;;
29504;SDS011;16452;54.174;12.092;2022-12-07T08:20:44;4.57;;;2.08;;
29504;SDS011;16452;54.174;12.092;2022-12-07T08:23:10;6.78;;;2.97;;
29504;SDS011;16452;54.174;12.092;2022-12-07T08:25:36;3.65;;;2.42;;
29504;SDS011;16452;54.174;12.092;2022-12-07T08:28:02;5.93;;;1.90;;
29504;SDS011;16452;54.174;12.092;2022-12-07T08:30:28;8.18;;;2.20;;
29504;SDS011;16452;54.174;12.092;2022-12-07T08:32:55;5.88;;;3.40;;
29504;SDS011;16452;54.174;12.092;2022-12-07T08:35:21;6.00;;;2.50;;
29504;SDS011;16452;54.174;12.092;2022-12-07T08:37:48;5.05;;;2.40;;
29504;SDS011;16452;54.174;12.092;2022-12-07T08:40:14;4.70;;;3.08;;
29504;SDS011;16452;54.174;12.092;2022-12-07T08:42:41;3.15;;;2.13;;
29504;SDS011;16452;54.174;12.092;2022-12-07T08:45:10;2.50;;;1.60;;
29504;SDS011;16452;54.174;12.092;2022-12-07T08:47:39;3.85;;;2.00;;
29504;SDS011;16452;54.174;12.092;2022-12-07T08:50:11;3.40;;;2.03;;
29504;SDS011;16452;54.174;12.092;2022-12-07T08:52:37;5.83;;;2.00;;
29504;SDS011;16452;54.174;12.092;2022-12-07T08:55:06;6.13;;;2.40;;
29504;SDS011;16452;54.174;12.092;2022-12-07T08:57:35;4.25;;;2.67;;
29504;SDS011;16452;54.174;12.092;2022-12-07T09:00:03;6.38;;;3.33;;
29504;SDS011;16452;54.174;12.092;2022-12-07T09:02:30;6.40;;;4.00;;
29504;SDS011;16452;54.174;12.092;2022-12-07T09:04:57;8.55;;;4.13;;
29504;SDS011;16452;54.174;12.092;2022-12-07T09:07:23;8.20;;;4.60;;
29504;SDS011;16452;54.174;12.092;2022-12-07T09:09:52;6.15;;;3.78;;
29504;SDS011;16452;54.174;12.092;2022-12-07T09:12:21;9.52;;;5.40;;
29504;SDS011;16452;54.174;12.092;2022-12-07T09:14:47;8.52;;;4.93;;
29504;SDS011;16452;54.174;12.092;2022-12-07T09:17:13;10.63;;;5.25;;
29504;SDS011;16452;54.174;12.092;2022-12-07T09:19:38;9.00;;;5.47;;
29504;SDS011;16452;54.174;12.092;2022-12-07T09:22:06;9.73;;;5.18;;
29504;SDS011;16452;54.174;12.092;2022-12-07T09:24:32;10.32;;;5.25;;
29504;SDS011;16452;54.174;12.092;2022-12-07T09:26:58;8.35;;;4.20;;
29504;SDS011;16452;54.174;12.092;2022-12-07T09:29:24;9.05;;;4.10;;
29504;SDS011;16452;54.174;12.092;2022-12-07T09:31:53;9.80;;;4.53;;
29504;SDS011;16452;54.174;12.092;2022-12-07T09:34:18;10.07;;;5.35;;
29504;SDS011;16452;54.174;12.092;2022-12-07T09:36:45;10.55;;;5.70;;
29504;SDS011;16452;54.174;12.092;2022-12-07T09:39:11;12.40;;;6.07;;
29504;SDS011;16452;54.174;12.092;2022-12-07T09:41:37;11.20;;;5.35;;
29504;SDS011;16452;54.174;12.092;2022-12-07T09:44:13;11.50;;;5.38;;
29504;SDS011;16452;54.174;12.092;2022-12-07T09:46:48;9.45;;;4.68;;
29504;SDS011;16452;54.174;12.092;2022-12-07T09:49:16;10.15;;;4.97;;
29504;SDS011;16452;54.174;12.092;2022-12-07T09:51:59;8.13;;;3.90;;
29504;SDS011;16452;54.174;12.092;2022-12-07T09:54:50;8.27;;;2.60;;
29504;SDS011;16452;54.174;12.092;2022-12-07T09:57:17;9.68;;;3.08;;
29504;SDS011;16452;54.174;12.092;2022-12-07T09:59:48;7.53;;;2.50;;
29504;SDS011;16452;54.174;12.092;2022-12-07T10:02:22;4.03;;;2.20;;
29504;SDS011;16452;54.174;12.092;2022-12-07T10:05:06;8.68;;;3.25;;
29504;SDS011;16452;54.174;12.092;2022-12-07T10:07:38;8.80;;;3.63;;
29504;SDS011;16452;54.174;12.092;2022-12-07T10:10:04;6.22;;;2.90;;
29504;SDS011;16452;54.174;12.092;2022-12-07T10:13:02;8.65;;;2.67;;
29504;SDS011;16452;54.174;12.092;2022-12-07T10:15:41;7.32;;;2.58;;
29504;SDS011;16452;54.174;12.092;2022-12-07T10:18:26;6.70;;;2.38;;
29504;SDS011;16452;54.174;12.092;2022-12-07T10:31:50;3.88;;;0.98;;
29504;SDS011;16452;54.174;12.092;2022-12-07T10:34:29;3.53;;;0.95;;
29504;SDS011;16452;54.174;12.092;2022-12-07T10:39:51;3.08;;;0.80;;
29504;SDS011;16452;54.174;12.092;2022-12-07T10:42:24;3.10;;;1.00;;
29504;SDS011;16452;54.174;12.092;2022-12-07T10:45:09;2.15;;;0.98;;
29504;SDS011;16452;54.174;12.092;2022-12-07T10:47:49;2.10;;;1.10;;
29504;SDS011;16452;54.174;12.092;2022-12-07T10:50:41;7.05;;;1.00;;
29504;SDS011;16452;54.174;12.092;2022-12-07T10:59:33;3.25;;;1.30;;
29504;SDS011;16452;54.174;12.092;2022-12-07T11:11:14;2.50;;;1.00;;
29504;SDS011;16452;54.174;12.092;2022-12-07T11:14:27;8.77;;;1.60;;
29504;SDS011;16452;54.174;12.092;2022-12-07T11:23:37;4.40;;;1.30;;
29504;SDS011;16452;54.174;12.092;2022-12-07T11:26:17;8.80;;;2.75;;
29504;SDS011;16452;54.174;12.092;2022-12-07T11:35:08;5.00;;;1.33;;
29504;SDS011;16452;54.174;12.092;2022-12-07T11:37:41;8.38;;;2.70;;
29504;SDS011;16452;54.174;12.092;2022-12-07T11:42:52;7.75;;;2.88;;
29504;SDS011;16452;54.174;12.092;2022-12-07T11:45:42;14.93;;;5.88;;
29504;SDS011;16452;54.174;12.092;2022-12-07T11:48:20;5.07;;;1.20;;
29504;SDS011;16452;54.174;12.092;2022-12-07T11:50:57;3.42;;;0.88;;
29504;SDS011;16452;54.174;12.092;2022-12-07T11:53:35;8.15;;;1.80;;
29504;SDS011;16452;54.174;12.092;2022-12-07T11:56:25;5.63;;;1.42;;
29504;SDS011;16452;54.174;12.092;2022-12-07T11:59:11;9.70;;;1.30;;
29504;SDS011;16452;54.174;12.092;2022-12-07T12:07:43;8.50;;;1.48;;
29504;SDS011;16452;54.174;12.092;2022-12-07T12:10:23;5.25;;;1.20;;
29504;SDS011;16452;54.174;12.092;2022-12-07T12:13:12;8.52;;;1.38;;
29504;SDS011;16452;54.174;12.092;2022-12-07T12:16:13;6.72;;;1.63;;
29504;SDS011;16452;54.174;12.092;2022-12-07T12:19:19;6.53;;;1.58;;
29504;SDS011;16452;54.174;12.092;2022-12-07T12:22:12;5.63;;;1.40;;
29504;SDS011;16452;54.174;12.092;2022-12-07T12:24:43;5.70;;;2.55;;
29504;SDS011;16452;54.174;12.092;2022-12-07T12:27:30;5.45;;;1.80;;
29504;SDS011;16452;54.174;12.092;2022-12-07T12:30:03;5.85;;;2.03;;
29504;SDS011;16452;54.174;12.092;2022-12-07T12:32:48;5.28;;;1.40;;
29504;SDS011;16452;54.174;12.092;2022-12-07T12:41:01;7.63;;;1.70;;
29504;SDS011;16452;54.174;12.092;2022-12-07T12:43:44;5.35;;;1.20;;
29504;SDS011;16452;54.174;12.092;2022-12-07T12:48:56;8.38;;;1.30;;
29504;SDS011;16452;54.174;12.092;2022-12-07T12:51:46;6.28;;;1.33;;
29504;SDS011;16452;54.174;12.092;2022-12-07T12:54:21;6.50;;;1.42;;
29504;SDS011;16452;54.174;12.092;2022-12-07T13:02:27;8.18;;;2.50;;
29504;SDS011;16452;54.174;12.092;2022-12-07T13:05:16;7.18;;;1.60;;
29504;SDS011;16452;54.174;12.092;2022-12-07T13:13:03;3.97;;;1.40;;
29504;SDS011;16452;54.174;12.092;2022-12-07T13:15:40;5.72;;;1.27;;
29504;SDS011;16452;54.174;12.092;2022-12-07T13:18:39;8.55;;;2.00;;
29504;SDS011;16452;54.174;12.092;2022-12-07T13:29:11;3.40;;;1.85;;
29504;SDS011;16452;54.174;12.092;2022-12-07T13:37:21;4.10;;;1.05;;
29504;SDS011;16452;54.174;12.092;2022-12-07T13:39:57;8.20;;;1.30;;
29504;SDS011;16452;54.174;12.092;2022-12-07T13:42:43;5.03;;;0.90;;
29504;SDS011;16452;54.174;12.092;2022-12-07T13:45:23;3.85;;;1.10;;
29504;SDS011;16452;54.174;12.092;2022-12-07T13:51:16;4.15;;;1.00;;
29504;SDS011;16452;54.174;12.092;2022-12-07T13:53:50;3.15;;;1.25;;
29504;SDS011;16452;54.174;12.092;2022-12-07T13:56:21;2.65;;;1.10;;
29504;SDS011;16452;54.174;12.092;2022-12-07T13:58:51;4.55;;;1.48;;
29504;SDS011;16452;54.174;12.092;2022-12-07T14:01:17;2.90;;;1.38;;
29504;SDS011;16452;54.174;12.092;2022-12-07T14:03:43;3.45;;;2.20;;
29504;SDS011;16452;54.174;12.092;2022-12-07T14:06:18;3.10;;;1.45;;
29504;SDS011;16452;54.174;12.092;2022-12-07T14:11:49;5.05;;;1.30;;
29504;SDS011;16452;54.174;12.092;2022-12-07T14:14:21;3.33;;;1.58;;
29504;SDS011;16452;54.174;12.092;2022-12-07T14:16:55;4.45;;;1.33;;
29504;SDS011;16452;54.174;12.092;2022-12-07T14:22:24;7.68;;;1.60;;
29504;SDS011;16452;54.174;12.092;2022-12-07T14:25:01;6.15;;;1.30;;
29504;SDS011;16452;54.174;12.092;2022-12-07T14:27:39;2.03;;;1.10;;
29504;SDS011;16452;54.174;12.092;2022-12-07T14:30:15;3.60;;;1.20;;
29504;SDS011;16452;54.174;12.092;2022-12-07T14:32:43;5.15;;;1.17;;
29504;SDS011;16452;54.174;12.092;2022-12-07T14:35:14;2.60;;;1.15;;
29504;SDS011;16452;54.174;12.092;2022-12-07T14:37:43;2.63;;;1.10;;
29504;SDS011;16452;54.174;12.092;2022-12-07T14:40:15;4.60;;;1.25;;
29504;SDS011;16452;54.174;12.092;2022-12-07T14:42:45;6.35;;;1.50;;
29504;SDS011;16452;54.174;12.092;2022-12-07T14:45:16;3.92;;;0.95;;
29504;SDS011;16452;54.174;12.092;2022-12-07T14:47:45;6.38;;;1.17;;
29504;SDS011;16452;54.174;12.092;2022-12-07T14:50:15;6.88;;;1.10;;
29504;SDS011;16452;54.174;12.092;2022-12-07T14:52:45;4.55;;;1.20;;
29504;SDS011;16452;54.174;12.092;2022-12-07T14:55:19;2.88;;;1.10;;
29504;SDS011;16452;54.174;12.092;2022-12-07T14:57:51;2.28;;;1.00;;
29504;SDS011;16452;54.174;12.092;2022-12-07T15:00:18;3.42;;;1.30;;
29504;SDS011;16452;54.174;12.092;2022-12-07T15:02:46;2.72;;;0.90;;
29504;SDS011;16452;54.174;12.092;2022-12-07T15:05:13;4.57;;;1.02;;
29504;SDS011;16452;54.174;12.092;2022-12-07T15:07:39;6.95;;;1.10;;
29504;SDS011;16452;54.174;12.092;2022-12-07T15:10:06;3.50;;;1.67;;
29504;SDS011;16452;54.174;12.092;2022-12-07T15:12:43;4.60;;;1.20;;
29504;SDS011;16452;54.174;12.092;2022-12-07T15:15:09;6.50;;;1.70;;
29504;SDS011;16452;54.174;12.092;2022-12-07T15:17:35;3.40;;;1.08;;
29504;SDS011;16452;54.174;12.092;2022-12-07T15:20:01;14.63;;;6.15;;
29504;SDS011;16452;54.174;12.092;2022-12-07T15:22:28;3.72;;;1.50;;
29504;SDS011;16452;54.174;12.092;2022-12-07T15:24:56;4.35;;;1.23;;
29504;SDS011;16452;54.174;12.092;2022-12-07T15:27:23;7.20;;;1.35;;
29504;SDS011;16452;54.174;12.092;2022-12-07T15:29:48;6.53;;;1.20;;
29504;SDS011;16452;54.174;12.092;2022-12-07T15:32:14;2.88;;;1.05;;
29504;SDS011;16452;54.174;12.092;2022-12-07T15:34:40;6.10;;;1.45;;
29504;SDS011;16452;54.174;12.092;2022-12-07T15:37:06;3.90;;;1.70;;
29504;SDS011;16452;54.174;12.092;2022-12-07T15:39:33;5.20;;;1.60;;
29504;SDS011;16452;54.174;12.092;2022-12-07T15:41:59;4.97;;;1.73;;
29504;SDS011;16452;54.174;12.092;2022-12-07T15:44:25;6.70;;;1.92;;
29504;SDS011;16452;54.174;12.092;2022-12-07T15:47:09;4.07;;;1.30;;
29504;SDS011;16452;54.174;12.092;2022-12-07T15:49:35;7.80;;;1.73;;
29504;SDS011;16452;54.174;12.092;2022-12-07T15:52:01;5.07;;;1.38;;
29504;SDS011;16452;54.174;12.092;2022-12-07T15:54:28;2.70;;;1.02;;
29504;SDS011;16452;54.174;12.092;2022-12-07T15:56:54;6.82;;;1.30;;
29504;SDS011;16452;54.174;12.092;2022-12-07T15:59:21;5.75;;;1.60;;
29504;SDS011;16452;54.174;12.092;2022-12-07T16:01:48;5.68;;;1.55;;
29504;SDS011;16452;54.174;12.092;2022-12-07T16:04:14;4.05;;;1.42;;
29504;SDS011;16452;54.174;12.092;2022-12-07T16:06:39;6.57;;;1.40;;
29504;SDS011;16452;54.174;12.092;2022-12-07T16:09:06;3.03;;;1.17;;
29504;SDS011;16452;54.174;12.092;2022-12-07T16:11:32;3.47;;;1.00;;
29504;SDS011;16452;54.174;12.092;2022-12-07T16:13:59;5.80;;;1.45;;
29504;SDS011;16452;54.174;12.092;2022-12-07T16:16:25;6.20;;;1.23;;
29504;SDS011;16452;54.174;12.092;2022-12-07T16:18:51;4.00;;;1.20;;
29504;SDS011;16452;54.174;12.092;2022-12-07T16:21:17;2.45;;;1.20;;
29504;SDS011;16452;54.174;12.092;2022-12-07T16:23:44;5.82;;;1.48;;
29504;SDS011;16452;54.174;12.092;2022-12-07T16:26:11;3.17;;;1.30;;
29504;SDS011;16452;54.174;12.092;2022-12-07T16:28:43;6.30;;;1.75;;
29504;SDS011;16452;54.174;12.092;2022-12-07T16:31:10;3.20;;;1.90;;
29504;SDS011;16452;54.174;12.092;2022-12-07T16:33:39;4.35;;;1.00;;
29504;SDS011;16452;54.174;12.092;2022-12-07T16:36:07;5.68;;;1.50;;
29504;SDS011;16452;54.174;12.092;2022-12-07T16:38:36;2.40;;;1.30;;
29504;SDS011;16452;54.174;12.092;2022-12-07T16:41:03;4.85;;;1.33;;
29504;SDS011;16452;54.174;12.092;2022-12-07T16:43:32;3.20;;;1.60;;
29504;SDS011;16452;54.174;12.092;2022-12-07T16:45:59;1.77;;;0.70;;
29504;SDS011;16452;54.174;12.092;2022-12-07T16:48:25;1.70;;;1.10;;
29504;SDS011;16452;54.174;12.092;2022-12-07T16:50:50;4.80;;;1.55;;
29504;SDS011;16452;54.174;12.092;2022-12-07T16:53:19;5.13;;;1.30;;
29504;SDS011;16452;54.174;12.092;2022-12-07T16:55:46;3.35;;;1.42;;
29504;SDS011;16452;54.174;12.092;2022-12-07T16:58:13;4.90;;;1.85;;
29504;SDS011;16452;54.174;12.092;2022-12-07T17:00:42;4.95;;;1.27;;
29504;SDS011;16452;54.174;12.092;2022-12-07T17:03:09;3.72;;;1.70;;
29504;SDS011;16452;54.174;12.092;2022-12-07T17:05:40;4.10;;;1.10;;